NCAR-RAP Real-Time Weather Data

Output produced by METARs form (21 April 2018  09:47 UTC)
found at http://weather.rap.ucar.edu/surface/
 
Conditions at: KSPG observed 21 April 2018  09:21 UTC
Temperature: 21.1°C (70°F)
Dewpoint: 19.4°C (67°F) [RH = 90%]
Pressure (altimeter): 30.09 inches Hg (1019.0 mb)
Winds: from the ENE (70 degrees) at 16 MPH (14 knots; 7.3 m/s)
Visibility: 8 miles (13 km)
Ceiling: 2000 feet AGL
Clouds: few clouds at 900 feet AGL
broken clouds at 2000 feet AGL
Present Weather: automated observation with no human augmentation;
there may or may not be significant weather present at this time
KSPG 210921Z AUTO 07014KT 8SM FEW009 BKN020 21/19 A3009 RMK AO2 T02110194

Conditions at: KSPG observed 21 April 2018  08:53 UTC
Temperature: 21.1°C (70°F)
Dewpoint: 19.4°C (67°F) [RH = 90%]
Pressure (altimeter): 30.09 inches Hg (1019.0 mb)
[Sea-level pressure: 1018.7 mb]
Winds: from the ENE (60 degrees) at 17 MPH (15 knots; 7.8 m/s)
Visibility: 8 miles (13 km)
Ceiling: 2200 feet AGL
Clouds: scattered clouds at 1000 feet AGL
overcast cloud deck at 2200 feet AGL
Present Weather: automated observation with no human augmentation;
there may or may not be significant weather present at this time
KSPG 210853Z AUTO 06015KT 8SM SCT010 OVC022 21/19 A3009 RMK AO2 SLP187 T02110194 56012

Conditions at: KSPG observed 21 April 2018  08:19 UTC
Temperature: 20.6°C (69°F)
Dewpoint: 18.9°C (66°F) [RH = 90%]
Pressure (altimeter): 30.09 inches Hg (1019.0 mb)
Winds: from the ENE (60 degrees) at 16 MPH (14 knots; 7.3 m/s)
Visibility: 9 miles (14 km)
Ceiling: 1800 feet AGL
Clouds: few clouds at 1100 feet AGL
broken clouds at 1800 feet AGL
Present Weather: automated observation with no human augmentation;
there may or may not be significant weather present at this time
KSPG 210819Z AUTO 06014KT 9SM FEW011 BKN018 21/19 A3009 RMK AO2 T02060189

Conditions at: KSPG observed 21 April 2018  07:53 UTC
Temperature: 21.1°C (70°F)
Dewpoint: 18.9°C (66°F) [RH = 87%]
Pressure (altimeter): 30.09 inches Hg (1019.0 mb)
[Sea-level pressure: 1018.9 mb]
Winds: from the ENE (60 degrees) at 15 MPH (13 knots; 6.8 m/s)
Visibility: 9 miles (14 km)
Ceiling: at least 12,000 feet AGL
Clouds: few clouds at 1200 feet AGL
scattered clouds at 1900 feet AGL
Present Weather: automated observation with no human augmentation;
there may or may not be significant weather present at this time
KSPG 210753Z AUTO 06013KT 9SM FEW012 SCT019 21/19 A3009 RMK AO2 SLP189 T02110189

Conditions at: KSPG observed 21 April 2018  07:45 UTC
Temperature: 21.1°C (70°F)
Dewpoint: 18.9°C (66°F) [RH = 87%]
Pressure (altimeter): 30.09 inches Hg (1019.0 mb)
Winds: from the ENE (70 degrees) at 15 MPH (13 knots; 6.8 m/s)
Visibility: 9 miles (14 km)
Ceiling: 2000 feet AGL
Clouds: few clouds at 1200 feet AGL
broken clouds at 2000 feet AGL
Present Weather: automated observation with no human augmentation;
there may or may not be significant weather present at this time
KSPG 210745Z AUTO 07013KT 9SM FEW012 BKN020 21/19 A3009 RMK AO2 T02110189

Conditions at: KSPG observed 21 April 2018  06:53 UTC
Temperature: 21.1°C (70°F)
Dewpoint: 18.9°C (66°F) [RH = 87%]
Pressure (altimeter): 30.10 inches Hg (1019.4 mb)
[Sea-level pressure: 1019.1 mb]
Winds: from the ENE (60 degrees) at 18 MPH (16 knots; 8.3 m/s)
Visibility: 10 or more miles (16+ km)
Ceiling: at least 12,000 feet AGL
Clouds: sky clear below 12,000 feet AGL
Present Weather: automated observation with no human augmentation;
there may or may not be significant weather present at this time
KSPG 210653Z AUTO 06016KT 10SM CLR 21/19 A3010 RMK AO2 SLP191 T02110189

Conditions at: KSPG observed 21 April 2018  05:53 UTC
Temperature: 21.1°C (70°F)
Dewpoint: 18.9°C (66°F) [RH = 87%]
Pressure (altimeter): 30.12 inches Hg (1020.1 mb)
[Sea-level pressure: 1019.9 mb]
Winds: from the ENE (60 degrees) at 21 MPH (18 knots; 9.4 m/s)
Visibility: 10 or more miles (16+ km)
Ceiling: at least 12,000 feet AGL
Clouds: few clouds at 1200 feet AGL
Present Weather: automated observation with no human augmentation;
there may or may not be significant weather present at this time
KSPG 210553Z AUTO 06018KT 10SM FEW012 21/19 A3012 RMK AO2 SLP199 T02110189 10244 20211 58001

Conditions at: KSPG observed 21 April 2018  05:09 UTC
Temperature: 21.1°C (70°F)
Dewpoint: 18.9°C (66°F) [RH = 87%]
Pressure (altimeter): 30.12 inches Hg (1020.1 mb)
Winds: from the ENE (70 degrees) at 20 MPH (17 knots; 8.8 m/s)
Visibility: 10 or more miles (16+ km)
Ceiling: 4000 feet AGL
Clouds: scattered clouds at 1700 feet AGL
broken clouds at 4000 feet AGL
Present Weather: automated observation with no human augmentation;
there may or may not be significant weather present at this time
KSPG 210509Z AUTO 07017KT 10SM SCT017 BKN040 21/19 A3012 RMK AO2 T02110189

Conditions at: KSPG observed 21 April 2018  04:53 UTC
Temperature: 21.7°C (71°F)
Dewpoint: 18.9°C (66°F) [RH = 84%]
Pressure (altimeter): 30.13 inches Hg (1020.4 mb)
[Sea-level pressure: 1020.2 mb]
Winds: from the ENE (60 degrees) at 20 MPH (17 knots; 8.8 m/s)
Visibility: 10 or more miles (16+ km)
Ceiling: 1800 feet AGL
Clouds: broken clouds at 1800 feet AGL
overcast cloud deck at 4000 feet AGL
Present Weather: automated observation with no human augmentation;
there may or may not be significant weather present at this time
KSPG 210453Z AUTO 06017KT 10SM BKN018 OVC040 22/19 A3013 RMK AO2 SLP202 T02170189 402780206

Conditions at: KSPG observed 21 April 2018  03:53 UTC
Temperature: 22.2°C (72°F)
Dewpoint: 18.9°C (66°F) [RH = 82%]
Pressure (altimeter): 30.13 inches Hg (1020.4 mb)
[Sea-level pressure: 1020.1 mb]
Winds: from the ENE (70 degrees) at 20 MPH (17 knots; 8.8 m/s)
Visibility: 10 or more miles (16+ km)
Ceiling: 3500 feet AGL
Clouds: few clouds at 1900 feet AGL
overcast cloud deck at 3500 feet AGL
Present Weather: automated observation with no human augmentation;
there may or may not be significant weather present at this time
KSPG 210353Z AUTO 07017KT 10SM FEW019 OVC035 22/19 A3013 RMK AO2 SLP201 T02220189

Conditions at: KSPG observed 21 April 2018  03:20 UTC
Temperature: 22.2°C (72°F)
Dewpoint: 18.9°C (66°F) [RH = 82%]
Pressure (altimeter): 30.13 inches Hg (1020.4 mb)
Winds: from the ENE (70 degrees) at 22 MPH (19 knots; 9.9 m/s)
Visibility: 10 or more miles (16+ km)
Ceiling: 3400 feet AGL
Clouds: scattered clouds at 2600 feet AGL
overcast cloud deck at 3400 feet AGL
Present Weather: automated observation with no human augmentation;
there may or may not be significant weather present at this time
KSPG 210320Z AUTO 07019KT 10SM SCT026 OVC034 22/19 A3013 RMK AO2 T02220189

Conditions at: KSPG observed 21 April 2018  02:53 UTC
Temperature: 23.3°C (74°F)
Dewpoint: 20.0°C (68°F) [RH = 82%]
Pressure (altimeter): 30.12 inches Hg (1020.1 mb)
[Sea-level pressure: 1020.0 mb]
Winds: from the ENE (70 degrees) at 21 MPH (18 knots; 9.4 m/s)
Visibility: 10 or more miles (16+ km)
Ceiling: 2600 feet AGL
Clouds: broken clouds at 2600 feet AGL
overcast cloud deck at 3700 feet AGL
Present Weather: automated observation with no human augmentation;
there may or may not be significant weather present at this time
KSPG 210253Z AUTO 07018KT 10SM BKN026 OVC037 23/20 A3012 RMK AO2 SLP200 T02330200 52017

Conditions at: KSPG observed 21 April 2018  02:43 UTC
Temperature: 23.3°C (74°F)
Dewpoint: 19.4°C (67°F) [RH = 79%]
Pressure (altimeter): 30.12 inches Hg (1020.1 mb)
Winds: from the ENE (70 degrees) at 22 MPH (19 knots; 9.9 m/s)
Visibility: 10 or more miles (16+ km)
Ceiling: 2400 feet AGL
Clouds: broken clouds at 2400 feet AGL
overcast cloud deck at 3100 feet AGL
Present Weather: automated observation with no human augmentation;
there may or may not be significant weather present at this time
KSPG 210243Z AUTO 07019KT 10SM BKN024 OVC031 23/19 A3012 RMK AO2 T02330194

Conditions at: KSPG observed 21 April 2018  01:53 UTC
Temperature: 23.3°C (74°F)
Dewpoint: 18.9°C (66°F) [RH = 76%]
Pressure (altimeter): 30.11 inches Hg (1019.7 mb)
[Sea-level pressure: 1019.5 mb]
Winds: from the N (10 degrees) at 8 MPH (7 knots; 3.6 m/s)
Visibility: 10 or more miles (16+ km)
Ceiling: 3600 feet AGL
Clouds: overcast cloud deck at 3600 feet AGL
Present Weather: automated observation with no human augmentation;
there may or may not be significant weather present at this time
KSPG 210153Z AUTO 01007KT 10SM OVC036 23/19 A3011 RMK AO2 SLP195 T02330189

Conditions at: KSPG observed 21 April 2018  00:53 UTC
Temperature: 23.9°C (75°F)
Dewpoint: 17.8°C (64°F) [RH = 69%]
Pressure (altimeter): 30.09 inches Hg (1019.0 mb)
[Sea-level pressure: 1018.8 mb]
Winds: from the N (350 degrees) at 8 MPH (7 knots; 3.6 m/s)
Visibility: 10 or more miles (16+ km)
Ceiling: at least 12,000 feet AGL
Clouds: sky clear below 12,000 feet AGL
Present Weather: automated observation with no human augmentation;
there may or may not be significant weather present at this time
KSPG 210053Z AUTO 35007KT 10SM CLR 24/18 A3009 RMK AO2 SLP188 T02390178

Conditions at: KSPG observed 20 April 2018  23:53 UTC
Temperature: 24.4°C (76°F)
Dewpoint: 17.2°C (63°F) [RH = 64%]
Pressure (altimeter): 30.07 inches Hg (1018.4 mb)
[Sea-level pressure: 1018.3 mb]
Winds: from the NNW (340 degrees) at 10 MPH (9 knots; 4.7 m/s)
Visibility: 10 or more miles (16+ km)
Ceiling: at least 12,000 feet AGL
Clouds: sky clear below 12,000 feet AGL
Present Weather: no significant weather observed at this time
KSPG 202353Z 34009KT 10SM CLR 24/17 A3007 RMK AO2 SLP183 T02440172 10278 20244 53002

Conditions at: KSPG observed 20 April 2018  22:53 UTC
Temperature: 25.6°C (78°F)
Dewpoint: 16.7°C (62°F) [RH = 58%]
Pressure (altimeter): 30.07 inches Hg (1018.4 mb)
[Sea-level pressure: 1018.0 mb]
Winds: from the NNW (330 degrees) at 6 MPH (5 knots; 2.6 m/s)
Visibility: 10 or more miles (16+ km)
Ceiling: at least 12,000 feet AGL
Clouds: sky clear below 12,000 feet AGL
Present Weather: no significant weather observed at this time
KSPG 202253Z 33005KT 10SM CLR 26/17 A3007 RMK AO2 SLP180 T02560167

Conditions at: KSPG observed 20 April 2018  21:53 UTC
Temperature: 26.1°C (79°F)
Dewpoint: 16.7°C (62°F) [RH = 56%]
Pressure (altimeter): 30.07 inches Hg (1018.4 mb)
[Sea-level pressure: 1018.4 mb]
Winds: from the NNW (330 degrees) at 13 MPH (11 knots; 5.7 m/s)
Visibility: 10 or more miles (16+ km)
Ceiling: at least 12,000 feet AGL
Clouds: sky clear below 12,000 feet AGL
Present Weather: no significant weather observed at this time
KSPG 202153Z 33011KT 10SM CLR 26/17 A3007 RMK AO2 SLP184 T02610167

Conditions at: KSPG observed 20 April 2018  20:53 UTC
Temperature: 26.7°C (80°F)
Dewpoint: 17.2°C (63°F) [RH = 56%]
Pressure (altimeter): 30.07 inches Hg (1018.4 mb)
[Sea-level pressure: 1018.1 mb]
Winds: variable direction winds at 3 MPH (3 knots; 1.6 m/s)
Visibility: 10 or more miles (16+ km)
Ceiling: at least 12,000 feet AGL
Clouds: sky clear below 12,000 feet AGL
Present Weather: no significant weather observed at this time
KSPG 202053Z VRB03KT 10SM CLR 27/17 A3007 RMK AO2 SLP181 T02670172 58017

Conditions at: KSPG observed 20 April 2018  19:53 UTC
Temperature: 26.7°C (80°F)
Dewpoint: 16.7°C (62°F) [RH = 54%]
Pressure (altimeter): 30.09 inches Hg (1019.0 mb)
[Sea-level pressure: 1018.7 mb]
Winds: variable direction winds at 6 MPH (5 knots; 2.6 m/s)
Visibility: 10 or more miles (16+ km)
Ceiling: at least 12,000 feet AGL
Clouds: sky clear below 12,000 feet AGL
Present Weather: no significant weather observed at this time
KSPG 201953Z VRB05KT 10SM CLR 27/17 A3009 RMK AO2 SLP187 T02670167

Conditions at: KSPG observed 20 April 2018  18:53 UTC
Temperature: 26.1°C (79°F)
Dewpoint: 16.7°C (62°F) [RH = 56%]
Pressure (altimeter): 30.11 inches Hg (1019.7 mb)
[Sea-level pressure: 1019.4 mb]
Winds: from the SE (130 degrees) at 6 MPH (5 knots; 2.6 m/s)
Visibility: 10 or more miles (16+ km)
Ceiling: at least 12,000 feet AGL
Clouds: scattered clouds at 4100 feet AGL
Present Weather: no significant weather observed at this time
KSPG 201853Z 13005KT 10SM SCT041 26/17 A3011 RMK AO2 SLP194 T02610167

Conditions at: KSPG observed 20 April 2018  17:53 UTC
Temperature: 25.6°C (78°F)
Dewpoint: 17.2°C (63°F) [RH = 60%]
Pressure (altimeter): 30.12 inches Hg (1020.1 mb)
[Sea-level pressure: 1019.8 mb]
Winds: from the SSE (150 degrees) at 6 MPH (5 knots; 2.6 m/s)
Visibility: 10 or more miles (16+ km)
Ceiling: at least 12,000 feet AGL
Clouds: sky clear below 12,000 feet AGL
Present Weather: no significant weather observed at this time
KSPG 201753Z 15005KT 10SM CLR 26/17 A3012 RMK AO2 SLP198 T02560172 10256 20211 58002

Conditions at: KSPG observed 20 April 2018  16:53 UTC
Temperature: 24.4°C (76°F)
Dewpoint: 17.8°C (64°F) [RH = 67%]
Pressure (altimeter): 30.12 inches Hg (1020.1 mb)
[Sea-level pressure: 1019.9 mb]
Winds: from the SE (130 degrees) at 6 MPH (5 knots; 2.6 m/s)
Visibility: 10 or more miles (16+ km)
Ceiling: at least 12,000 feet AGL
Clouds: sky clear below 12,000 feet AGL
Present Weather: no significant weather observed at this time
KSPG 201653Z 13005KT 10SM CLR 24/18 A3012 RMK AO2 SLP199 T02440178

Conditions at: KSPG observed 20 April 2018  15:53 UTC
Temperature: 24.4°C (76°F)
Dewpoint: 16.7°C (62°F) [RH = 62%]
Pressure (altimeter): 30.13 inches Hg (1020.4 mb)
[Sea-level pressure: 1020.2 mb]
Winds: from the SE (130 degrees) at 7 MPH (6 knots; 3.1 m/s)
Visibility: 10 or more miles (16+ km)
Ceiling: at least 12,000 feet AGL
Clouds: sky clear below 12,000 feet AGL
Present Weather: no significant weather observed at this time
KSPG 201553Z 13006KT 10SM CLR 24/17 A3013 RMK AO2 SLP202 T02440167

Conditions at: KSPG observed 20 April 2018  14:53 UTC
Temperature: 23.9°C (75°F)
Dewpoint: 18.9°C (66°F) [RH = 74%]
Pressure (altimeter): 30.12 inches Hg (1020.1 mb)
[Sea-level pressure: 1020.0 mb]
Winds: from the E (90 degrees) at 8 MPH (7 knots; 3.6 m/s)
Visibility: 10 or more miles (16+ km)
Ceiling: at least 12,000 feet AGL
Clouds: sky clear below 12,000 feet AGL
Present Weather: no significant weather observed at this time
KSPG 201453Z 09007KT 10SM CLR 24/19 A3012 RMK AO2 SLP200 T02390189 51008

Conditions at: KSPG observed 20 April 2018  13:53 UTC
Temperature: 23.9°C (75°F)
Dewpoint: 17.8°C (64°F) [RH = 69%]
Pressure (altimeter): 30.12 inches Hg (1020.1 mb)
[Sea-level pressure: 1019.8 mb]
Winds: from the N (10 degrees) at 7 MPH (6 knots; 3.1 m/s)
Visibility: 10 or more miles (16+ km)
Ceiling: at least 12,000 feet AGL
Clouds: few clouds at 2300 feet AGL
scattered clouds at 3000 feet AGL
Present Weather: no significant weather observed at this time
KSPG 201353Z 01006KT 10SM FEW023 SCT030 24/18 A3012 RMK AO2 SLP198 T02390178

Conditions at: KSPG observed 20 April 2018  12:53 UTC
Temperature: 22.8°C (73°F)
Dewpoint: 18.9°C (66°F) [RH = 79%]
Pressure (altimeter): 30.12 inches Hg (1020.1 mb)
[Sea-level pressure: 1019.7 mb]
Winds: from the N (10 degrees) at 3 MPH (3 knots; 1.6 m/s)
Visibility: 10 or more miles (16+ km)
Ceiling: at least 12,000 feet AGL
Clouds: sky clear below 12,000 feet AGL
Present Weather: no significant weather observed at this time
KSPG 201253Z 01003KT 10SM CLR 23/19 A3012 RMK AO2 SLP197 T02280189

Conditions at: KSPG observed 20 April 2018  11:53 UTC
Temperature: 21.1°C (70°F)
Dewpoint: 18.3°C (65°F) [RH = 84%]
Pressure (altimeter): 30.10 inches Hg (1019.4 mb)
[Sea-level pressure: 1019.3 mb]
Winds: calm
Visibility: 10 or more miles (16+ km)
Ceiling: at least 12,000 feet AGL
Clouds: sky clear below 12,000 feet AGL
Present Weather: no significant weather observed at this time
KSPG 201153Z 00000KT 10SM CLR 21/18 A3010 RMK AO2 SLP193 T02110183 10217 20206 53017

Conditions at: KSPG observed 20 April 2018  10:53 UTC
Temperature: 20.6°C (69°F)
Dewpoint: 17.8°C (64°F) [RH = 84%]
Pressure (altimeter): 30.07 inches Hg (1018.4 mb)
[Sea-level pressure: 1018.2 mb]
Winds: calm
Visibility: 10 or more miles (16+ km)
Ceiling: at least 12,000 feet AGL
Clouds: sky clear below 12,000 feet AGL
Present Weather: no significant weather observed at this time
KSPG 201053Z 00000KT 10SM CLR 21/18 A3007 RMK AO2 SLP182 T02060178

Conditions at: KSPG observed 20 April 2018  09:53 UTC
Temperature: 21.1°C (70°F)
Dewpoint: 17.8°C (64°F) [RH = 81%]
Pressure (altimeter): 30.06 inches Hg (1018.0 mb)
[Sea-level pressure: 1017.7 mb]
Winds: from the NNW (340 degrees) at 7 MPH (6 knots; 3.1 m/s)
Visibility: 10 or more miles (16+ km)
Ceiling: at least 12,000 feet AGL
Clouds: sky clear below 12,000 feet AGL
Present Weather: automated observation with no human augmentation;
there may or may not be significant weather present at this time
KSPG 200953Z AUTO 34006KT 10SM CLR 21/18 A3006 RMK AO2 SLP177 T02110178